createdAt,value
2022-11-26T00:02:06.852Z,2.80
2022-11-26T00:04:53.532Z,2.40
2022-11-26T00:07:40.844Z,3.00
2022-11-26T00:10:30.415Z,2.37
2022-11-26T00:13:18.843Z,2.47
2022-11-26T00:16:04.949Z,2.43
2022-11-26T00:18:50.189Z,2.73
2022-11-26T00:21:39.207Z,1.93
2022-11-26T00:24:29.691Z,2.20
2022-11-26T00:27:15.345Z,2.20
2022-11-26T00:30:00.660Z,3.00
2022-11-26T00:32:46.503Z,2.80
2022-11-26T00:35:31.638Z,3.03
2022-11-26T00:38:20.462Z,3.30
2022-11-26T00:41:12.533Z,2.27
2022-11-26T00:43:58.835Z,2.30
2022-11-26T00:46:44.453Z,2.87
2022-11-26T00:49:29.618Z,3.73
2022-11-26T00:52:33.004Z,2.93
2022-11-26T00:55:26.685Z,2.33
2022-11-26T01:01:12.422Z,2.00
2022-11-26T01:03:58.910Z,2.97
2022-11-26T01:06:45.152Z,1.40
2022-11-26T01:09:30.341Z,4.10
2022-11-26T01:12:15.664Z,1.80
2022-11-26T01:15:00.964Z,2.23
2022-11-26T01:17:47.428Z,3.37
2022-11-26T01:20:32.753Z,2.00
2022-11-26T01:23:19.639Z,2.50
2022-11-26T01:26:06.647Z,2.17
2022-11-26T01:28:52.349Z,3.20
2022-11-26T01:31:37.978Z,3.20
2022-11-26T01:34:23.010Z,1.70
2022-11-26T01:37:14.095Z,2.63
2022-11-26T01:39:59.716Z,2.23
2022-11-26T01:42:49.611Z,3.23
2022-11-26T01:45:34.872Z,3.87
2022-11-26T01:48:27.159Z,4.23
2022-11-26T01:51:13.546Z,3.00
2022-11-26T01:54:00.759Z,3.17
2022-11-26T01:56:52.492Z,3.33
2022-11-26T01:59:42.545Z,3.07
2022-11-26T02:02:29.833Z,2.23
2022-11-26T02:05:19.887Z,2.43
2022-11-26T02:08:05.897Z,2.10
2022-11-26T02:10:52.801Z,3.33
2022-11-26T02:13:38.337Z,1.73
2022-11-26T02:16:36.341Z,3.77
2022-11-26T02:19:42.225Z,3.37
2022-11-26T02:22:48.981Z,4.23
2022-11-26T02:25:43.714Z,1.87
2022-11-26T02:28:50.126Z,3.23
2022-11-26T02:31:57.295Z,2.60
2022-11-26T02:34:56.819Z,2.17
2022-11-26T02:38:10.482Z,2.10
2022-11-26T02:40:56.669Z,3.40
2022-11-26T02:43:42.455Z,2.00
2022-11-26T02:46:29.488Z,2.13
2022-11-26T02:49:20.259Z,2.10
2022-11-26T02:52:09.920Z,2.90
2022-11-26T02:54:56.697Z,3.23
2022-11-26T02:57:48.704Z,2.20
2022-11-26T03:00:38.077Z,2.30
2022-11-26T03:03:28.008Z,2.30
2022-11-26T03:06:15.073Z,3.10
2022-11-26T03:09:01.012Z,1.73
2022-11-26T03:11:46.537Z,2.43
2022-11-26T03:14:31.723Z,3.83
2022-11-26T03:17:17.856Z,2.20
2022-11-26T03:20:04.150Z,4.07
2022-11-26T03:22:49.840Z,2.03
2022-11-26T03:25:35.334Z,1.90
2022-11-26T03:28:20.884Z,1.80
2022-11-26T03:31:06.141Z,2.40
2022-11-26T03:33:51.544Z,2.43
2022-11-26T03:36:37.165Z,2.13
2022-11-26T03:39:22.608Z,1.60
2022-11-26T03:42:07.953Z,1.33
2022-11-26T03:44:53.431Z,1.70
2022-11-26T03:47:39.364Z,1.90
2022-11-26T03:50:24.975Z,3.23
2022-11-26T03:53:10.201Z,2.13
2022-11-26T03:55:56.143Z,2.57
2022-11-26T03:58:41.425Z,2.00
2022-11-26T04:01:26.897Z,1.50
2022-11-26T04:04:12.213Z,1.40
2022-11-26T04:06:57.497Z,2.13
2022-11-26T04:09:42.996Z,2.23
2022-11-26T04:12:28.308Z,1.50
2022-11-26T04:15:13.605Z,5.20
2022-11-26T04:17:58.907Z,3.27
2022-11-26T04:20:46.645Z,2.60
2022-11-26T04:23:35.646Z,2.70
2022-11-26T04:26:21.383Z,2.47
2022-11-26T04:29:06.669Z,2.70
2022-11-26T04:31:52.311Z,3.33
2022-11-26T04:34:37.869Z,1.83
2022-11-26T04:37:23.470Z,3.93
2022-11-26T04:40:09.446Z,3.00
2022-11-26T04:42:54.934Z,3.33
2022-11-26T04:45:40.393Z,4.10
2022-11-26T04:48:26.345Z,4.13
2022-11-26T04:51:11.686Z,2.93
2022-11-26T04:54:01.628Z,4.70
2022-11-26T04:56:48.410Z,3.17
2022-11-26T04:59:33.707Z,2.60
2022-11-26T05:02:19.233Z,3.40
2022-11-26T05:05:04.791Z,3.47
2022-11-26T05:07:50.300Z,2.20
2022-11-26T05:10:35.676Z,4.53
2022-11-26T05:13:21.346Z,5.00
2022-11-26T05:16:07.072Z,4.57
2022-11-26T05:18:52.696Z,4.10
2022-11-26T05:21:38.052Z,3.47
2022-11-26T05:24:23.584Z,5.27
2022-11-26T05:27:09.293Z,4.33
2022-11-26T05:29:54.646Z,2.83
2022-11-26T05:32:39.863Z,2.43
2022-11-26T05:35:25.080Z,2.63
2022-11-26T05:38:10.525Z,4.73
2022-11-26T05:40:55.903Z,4.20
2022-11-26T05:43:41.541Z,4.00
2022-11-26T05:46:26.841Z,3.43
2022-11-26T05:49:12.737Z,4.60
2022-11-26T05:51:59.622Z,3.97
2022-11-26T05:54:44.764Z,4.23
2022-11-26T05:57:30.175Z,3.70
2022-11-26T06:00:16.001Z,5.67
2022-11-26T06:03:01.482Z,4.67
2022-11-26T06:05:47.286Z,3.57
2022-11-26T06:08:32.828Z,4.13
2022-11-26T06:11:18.455Z,3.77
2022-11-26T06:14:03.791Z,6.57
2022-11-26T06:16:49.269Z,3.97
2022-11-26T06:19:34.433Z,3.60
2022-11-26T06:22:19.761Z,4.07
2022-11-26T06:25:06.791Z,4.43
2022-11-26T06:27:52.277Z,4.93
2022-11-26T06:30:37.526Z,6.93
2022-11-26T06:33:22.953Z,4.70
2022-11-26T06:36:10.492Z,3.87
2022-11-26T06:38:56.073Z,2.37
2022-11-26T06:41:41.876Z,5.67
2022-11-26T06:44:27.165Z,4.20
2022-11-26T06:47:13.604Z,4.40
2022-11-26T06:49:59.164Z,3.57
2022-11-26T06:52:44.589Z,3.40
2022-11-26T06:55:30.211Z,4.40
2022-11-26T06:58:15.378Z,3.40
2022-11-26T07:01:00.697Z,8.00
2022-11-26T07:03:46.819Z,6.37
2022-11-26T07:06:33.643Z,3.77
2022-11-26T07:09:18.940Z,3.10
2022-11-26T07:12:04.366Z,3.93
2022-11-26T07:14:50.018Z,3.97
2022-11-26T07:17:35.216Z,5.13
2022-11-26T07:20:20.661Z,3.30
2022-11-26T07:23:06.524Z,4.57
2022-11-26T07:25:51.745Z,2.60
2022-11-26T07:28:37.928Z,5.13
2022-11-26T07:31:24.119Z,2.83
2022-11-26T07:34:09.659Z,7.30
2022-11-26T07:36:58.061Z,5.77
2022-11-26T07:39:43.843Z,9.70
2022-11-26T07:42:33.444Z,5.27
2022-11-26T07:45:18.708Z,11.90
2022-11-26T07:48:04.736Z,8.47
2022-11-26T07:50:50.339Z,7.07
2022-11-26T07:53:35.923Z,7.60
2022-11-26T07:56:21.312Z,4.40
2022-11-26T07:59:06.684Z,4.57
2022-11-26T08:01:52.274Z,5.70
2022-11-26T08:04:37.737Z,5.77
2022-11-26T08:07:28.958Z,5.37
2022-11-26T08:10:15.346Z,6.97
2022-11-26T08:13:00.722Z,6.33
2022-11-26T08:15:48.737Z,10.07
2022-11-26T08:18:34.301Z,4.63
2022-11-26T08:21:19.804Z,5.30
2022-11-26T08:24:06.038Z,3.90
2022-11-26T08:26:51.474Z,6.20
2022-11-26T08:29:37.178Z,4.53
2022-11-26T08:32:22.491Z,6.50
2022-11-26T08:35:08.165Z,5.37
2022-11-26T08:37:53.654Z,7.33
2022-11-26T08:40:39.125Z,4.00
2022-11-26T08:43:39.617Z,7.00
2022-11-26T08:46:29.765Z,7.47
2022-11-26T08:49:15.444Z,6.73
2022-11-26T08:52:00.690Z,7.83
2022-11-26T08:54:46.502Z,8.60
2022-11-26T08:57:31.860Z,7.57
2022-11-26T09:00:17.805Z,8.30
2022-11-26T09:03:03.019Z,5.43
2022-11-26T09:05:48.878Z,6.50
2022-11-26T09:08:58.040Z,7.17
2022-11-26T09:11:45.716Z,6.13
2022-11-26T09:14:37.971Z,5.80
2022-11-26T09:17:23.386Z,5.63
2022-11-26T09:20:08.883Z,9.53
2022-11-26T09:22:54.389Z,7.87
2022-11-26T09:25:40.152Z,4.83
2022-11-26T09:28:25.533Z,5.47
2022-11-26T09:31:10.785Z,5.80
2022-11-26T09:33:57.991Z,6.07
2022-11-26T09:36:43.263Z,5.83
2022-11-26T09:39:28.598Z,8.57
2022-11-26T09:42:34.862Z,8.13
2022-11-26T09:45:43.603Z,6.50
2022-11-26T09:48:32.363Z,5.27
2022-11-26T09:51:20.470Z,9.03
2022-11-26T09:54:06.451Z,7.27
2022-11-26T09:57:06.349Z,8.10
2022-11-26T09:59:54.034Z,4.70
2022-11-26T10:02:39.770Z,7.13
2022-11-26T10:05:40.211Z,7.20
2022-11-26T10:08:50.467Z,6.73
2022-11-26T10:11:54.773Z,6.93
2022-11-26T10:14:43.324Z,5.17
2022-11-26T10:17:56.937Z,6.10
2022-11-26T10:20:50.869Z,8.85
2022-11-26T10:23:47.823Z,6.33
2022-11-26T10:26:38.388Z,6.93
2022-11-26T10:29:35.312Z,4.00
2022-11-26T10:32:39.701Z,5.93
2022-11-26T10:35:29.135Z,4.70
2022-11-26T10:38:14.845Z,7.50
2022-11-26T10:40:59.975Z,5.93
2022-11-26T10:43:45.245Z,7.23
2022-11-26T10:46:35.975Z,5.57
2022-11-26T10:49:29.490Z,5.63
2022-11-26T10:52:24.792Z,6.20
2022-11-26T10:55:22.344Z,4.23
2022-11-26T10:58:16.682Z,5.60
2022-11-26T11:01:06.991Z,5.10
2022-11-26T11:04:13.092Z,3.73
2022-11-26T11:06:58.645Z,5.23
2022-11-26T11:09:44.346Z,4.77
2022-11-26T11:12:29.732Z,9.77
2022-11-26T11:15:18.014Z,4.60
2022-11-26T11:18:06.800Z,6.73
2022-11-26T11:20:55.927Z,4.50
2022-11-26T11:24:06.993Z,5.60
2022-11-26T11:26:53.492Z,2.47
2022-11-26T11:29:39.446Z,6.43
2022-11-26T11:32:42.835Z,3.60
2022-11-26T11:35:31.425Z,6.85
2022-11-26T11:38:29.188Z,2.90
2022-11-26T11:41:32.760Z,7.50
2022-11-26T11:44:30.328Z,5.72
2022-11-26T11:47:22.372Z,7.50
2022-11-26T11:50:23.174Z,5.73
2022-11-26T11:53:34.906Z,4.97
2022-11-26T11:56:38.551Z,4.67
2022-11-26T11:59:37.544Z,5.67
2022-11-26T12:02:48.013Z,6.03
2022-11-26T12:05:58.045Z,7.53
2022-11-26T12:09:19.318Z,4.27
2022-11-26T12:12:20.221Z,5.63
2022-11-26T12:15:14.507Z,6.57
2022-11-26T12:18:12.391Z,8.70
2022-11-26T12:21:11.884Z,16.07
2022-11-26T12:24:05.178Z,8.57
2022-11-26T12:27:01.627Z,11.07
2022-11-26T12:29:53.624Z,8.53
2022-11-26T12:32:53.956Z,11.50
2022-11-26T12:35:48.393Z,5.97
2022-11-26T12:38:45.198Z,5.70
2022-11-26T12:41:58.886Z,5.93
2022-11-26T12:44:49.486Z,10.25
2022-11-26T12:47:40.983Z,6.80
2022-11-26T12:50:38.184Z,6.00
2022-11-26T12:53:36.621Z,6.93
2022-11-26T12:56:29.229Z,9.00
2022-11-26T12:59:22.244Z,7.72
2022-11-26T13:02:33.252Z,7.40
2022-11-26T13:05:57.804Z,7.00
2022-11-26T13:09:07.823Z,7.70
2022-11-26T13:12:06.060Z,10.87
2022-11-26T13:15:20.525Z,8.03
2022-11-26T13:18:18.074Z,9.47
2022-11-26T13:21:31.449Z,6.70
2022-11-26T13:24:33.516Z,10.23
2022-11-26T13:27:43.922Z,9.87
2022-11-26T13:30:54.209Z,15.77
2022-11-26T13:34:00.925Z,8.70
2022-11-26T13:37:16.565Z,10.03
2022-11-26T13:40:39.105Z,9.27
2022-11-26T13:43:39.853Z,9.27
2022-11-26T13:46:48.905Z,11.17
2022-11-26T13:49:43.352Z,10.67
2022-11-26T13:52:41.740Z,8.93
2022-11-26T13:55:43.365Z,8.07
2022-11-26T13:58:43.545Z,12.17
2022-11-26T14:01:40.381Z,10.97
2022-11-26T14:04:26.037Z,15.53
2022-11-26T14:07:11.330Z,21.83
2022-11-26T14:10:00.202Z,51.57
2022-11-26T14:13:03.866Z,159.10
2022-11-26T14:15:53.422Z,292.83
2022-11-26T14:18:53.774Z,349.83
2022-11-26T14:21:59.289Z,354.60
2022-11-26T14:24:50.467Z,405.67
2022-11-26T14:27:40.789Z,423.90
2022-11-26T14:30:28.008Z,429.97
2022-11-26T14:33:24.052Z,432.77
2022-11-26T14:36:21.442Z,420.70
2022-11-26T14:39:11.198Z,416.57
2022-11-26T14:42:04.089Z,400.67
2022-11-26T14:45:17.739Z,373.73
2022-11-26T14:48:04.272Z,335.83
2022-11-26T14:50:50.221Z,291.33
2022-11-26T14:53:40.239Z,251.27
2022-11-26T14:56:26.576Z,226.50
2022-11-26T14:59:16.879Z,224.37
2022-11-26T15:02:02.786Z,213.53
2022-11-26T15:05:01.351Z,210.20
2022-11-26T15:07:57.061Z,208.23
2022-11-26T15:11:06.730Z,213.97
2022-11-26T15:13:53.036Z,215.70
2022-11-26T15:16:39.848Z,236.73
2022-11-26T15:19:26.927Z,224.20
2022-11-26T15:22:28.483Z,211.30
2022-11-26T15:25:29.928Z,205.63
2022-11-26T15:28:19.394Z,191.57
2022-11-26T15:31:08.529Z,186.03
2022-11-26T15:33:54.037Z,183.60
2022-11-26T15:36:39.696Z,174.23
2022-11-26T15:39:31.136Z,168.93
2022-11-26T15:42:28.332Z,171.33
2022-11-26T15:45:16.937Z,162.23
2022-11-26T15:48:04.048Z,168.07
2022-11-26T15:50:55.105Z,162.80
2022-11-26T15:53:46.537Z,164.33
2022-11-26T15:56:37.040Z,157.90
2022-11-26T15:59:26.033Z,163.70
2022-11-26T16:02:31.477Z,165.83
2022-11-26T16:05:29.573Z,160.57
2022-11-26T16:08:30.330Z,162.60
2022-11-26T16:11:20.992Z,160.87
2022-11-26T16:14:22.495Z,172.73
2022-11-26T16:17:17.470Z,168.33
2022-11-26T16:20:03.424Z,165.70
2022-11-26T16:22:51.707Z,160.83
2022-11-26T16:25:38.131Z,163.30
2022-11-26T16:28:23.805Z,165.53
2022-11-26T16:31:09.253Z,165.47
2022-11-26T16:33:55.419Z,161.17
2022-11-26T16:36:42.760Z,154.00
2022-11-26T16:39:32.116Z,153.80
2022-11-26T16:42:23.422Z,152.53
2022-11-26T16:45:11.425Z,155.37
2022-11-26T16:47:57.423Z,157.50
2022-11-26T16:50:43.306Z,157.30
2022-11-26T16:53:29.061Z,151.57
2022-11-26T16:56:29.028Z,147.70
2022-11-26T16:59:21.812Z,151.30
2022-11-26T17:02:18.756Z,153.80
2022-11-26T17:05:05.485Z,120.30
2022-11-26T17:07:59.215Z,114.87
2022-11-26T17:10:47.483Z,106.67
2022-11-26T17:13:33.335Z,112.93
2022-11-26T17:16:21.152Z,117.50
2022-11-26T17:19:12.436Z,108.67
2022-11-26T17:21:57.697Z,108.63
2022-11-26T17:24:43.139Z,106.50
2022-11-26T17:27:28.463Z,100.13
2022-11-26T17:30:17.967Z,94.73
2022-11-26T17:33:03.831Z,91.50
2022-11-26T17:35:49.398Z,88.00
2022-11-26T17:38:34.584Z,86.30
2022-11-26T17:41:20.617Z,78.93
2022-11-26T17:44:06.310Z,78.77
2022-11-26T17:47:15.940Z,73.37
2022-11-26T17:50:01.353Z,77.37
2022-11-26T17:52:47.275Z,72.77
2022-11-26T17:55:32.846Z,76.10
2022-11-26T17:58:18.789Z,73.57
2022-11-26T18:01:04.760Z,76.70
2022-11-26T18:03:52.550Z,67.63
2022-11-26T18:07:06.190Z,67.37
2022-11-26T18:09:51.855Z,73.55
2022-11-26T18:12:37.497Z,70.00
2022-11-26T18:15:29.164Z,69.37
2022-11-26T18:18:14.794Z,71.03
2022-11-26T18:21:00.275Z,68.07
2022-11-26T18:23:48.266Z,67.77
2022-11-26T18:26:33.937Z,65.30
2022-11-26T18:29:19.579Z,71.07
2022-11-26T18:32:06.999Z,69.80
2022-11-26T18:34:52.553Z,64.43
2022-11-26T18:37:40.159Z,63.90
2022-11-26T18:40:25.685Z,69.17
2022-11-26T18:43:10.969Z,66.70
2022-11-26T18:45:57.144Z,65.23
2022-11-26T18:48:49.866Z,69.33
2022-11-26T18:51:36.333Z,63.57
2022-11-26T18:54:21.870Z,65.20
2022-11-26T18:57:07.277Z,64.43
2022-11-26T18:59:52.507Z,61.83
2022-11-26T19:02:39.556Z,62.47
2022-11-26T19:05:26.480Z,66.47
2022-11-26T19:08:13.875Z,59.53
2022-11-26T19:11:00.193Z,59.03
2022-11-26T19:13:47.961Z,59.13
2022-11-26T19:16:34.320Z,54.97
2022-11-26T19:19:20.618Z,57.87
2022-11-26T19:22:06.070Z,58.27
2022-11-26T19:24:51.376Z,57.83
2022-11-26T19:27:36.603Z,55.20
2022-11-26T19:30:21.932Z,50.23
2022-11-26T19:33:07.924Z,48.53
2022-11-26T19:35:53.848Z,47.77
2022-11-26T19:38:39.607Z,44.30
2022-11-26T19:41:26.153Z,47.67
2022-11-26T19:44:11.874Z,42.50
2022-11-26T19:46:57.390Z,45.27
2022-11-26T19:49:42.731Z,45.33
2022-11-26T19:52:27.993Z,45.30
2022-11-26T19:55:13.252Z,39.77
2022-11-26T19:57:58.503Z,39.03
2022-11-26T20:00:43.668Z,36.57
2022-11-26T20:03:34.226Z,38.00
2022-11-26T20:09:13.877Z,39.07
2022-11-26T20:11:59.310Z,36.23
2022-11-26T20:14:44.709Z,36.47
2022-11-26T20:17:30.002Z,33.93
2022-11-26T20:20:15.425Z,29.90
2022-11-26T20:23:00.929Z,27.23
2022-11-26T20:25:46.222Z,28.93
2022-11-26T20:28:31.720Z,29.60
2022-11-26T20:31:23.045Z,25.40
2022-11-26T20:34:09.025Z,25.87
2022-11-26T20:36:54.743Z,28.90
2022-11-26T20:39:40.449Z,24.20
2022-11-26T20:42:26.149Z,26.17
2022-11-26T20:45:13.155Z,24.23
2022-11-26T20:47:58.378Z,22.23
2022-11-26T20:50:43.555Z,24.63
2022-11-26T20:53:29.466Z,22.57
2022-11-26T20:56:14.837Z,21.87
2022-11-26T20:59:01.236Z,19.10
2022-11-26T21:01:46.607Z,21.23
2022-11-26T21:04:32.052Z,20.00
2022-11-26T21:07:18.512Z,19.90
2022-11-26T21:10:04.181Z,19.60
2022-11-26T21:12:49.730Z,18.87
2022-11-26T21:15:35.067Z,17.47
2022-11-26T21:18:20.586Z,16.83
2022-11-26T21:21:15.352Z,16.47
2022-11-26T21:24:04.596Z,15.90
2022-11-26T21:26:50.164Z,16.80
2022-11-26T21:29:35.349Z,18.07
2022-11-26T21:32:20.745Z,14.57
2022-11-26T21:35:06.510Z,14.07
2022-11-26T21:37:51.852Z,15.67
2022-11-26T21:40:37.341Z,13.67
2022-11-26T21:43:22.396Z,15.20
2022-11-26T21:46:10.029Z,14.43
2022-11-26T21:48:57.122Z,13.93
2022-11-26T21:51:42.530Z,13.27
2022-11-26T21:54:28.297Z,11.87
2022-11-26T21:57:13.521Z,14.07
2022-11-26T21:59:58.760Z,14.83
2022-11-26T22:02:44.005Z,11.03
2022-11-26T22:05:29.046Z,14.23
2022-11-26T22:08:14.441Z,11.77
2022-11-26T22:10:59.761Z,11.13
2022-11-26T22:13:45.552Z,11.70
2022-11-26T22:16:31.608Z,12.27
2022-11-26T22:19:17.343Z,12.13
2022-11-26T22:22:02.949Z,11.90
2022-11-26T22:24:49.312Z,12.37
2022-11-26T22:27:34.651Z,11.10
2022-11-26T22:30:20.740Z,11.57
2022-11-26T22:33:06.129Z,11.90
2022-11-26T22:35:51.508Z,10.70
2022-11-26T22:38:38.453Z,12.80
2022-11-26T22:41:24.370Z,11.00
2022-11-26T22:44:10.165Z,11.97
2022-11-26T22:46:55.811Z,13.00
2022-11-26T22:49:43.669Z,11.00
2022-11-26T22:52:29.018Z,12.17
2022-11-26T22:55:14.405Z,12.03
2022-11-26T22:57:59.723Z,8.80
2022-11-26T23:01:08.823Z,10.37
2022-11-26T23:03:55.631Z,9.90
2022-11-26T23:06:41.530Z,11.27
2022-11-26T23:09:26.962Z,11.30
2022-11-26T23:12:12.272Z,11.40
2022-11-26T23:14:57.583Z,12.53
2022-11-26T23:17:42.739Z,9.73
2022-11-26T23:20:28.097Z,9.97
2022-11-26T23:23:13.931Z,9.27
2022-11-26T23:26:02.069Z,8.97
2022-11-26T23:28:47.625Z,9.73
2022-11-26T23:31:36.184Z,9.27
2022-11-26T23:34:21.219Z,10.40
2022-11-26T23:37:06.555Z,9.83
2022-11-26T23:39:51.919Z,10.13
2022-11-26T23:42:37.242Z,9.40
2022-11-26T23:45:23.093Z,10.63
2022-11-26T23:48:08.470Z,7.93
2022-11-26T23:50:53.785Z,8.40
2022-11-26T23:53:41.534Z,8.57
2022-11-26T23:56:29.469Z,10.90
2022-11-26T23:59:15.101Z,8.63
